Time;durP1;ratioP1;P1;durP2;ratioP2;P2;SDS_P1;SDS_P2;PMS_P1;PMS_P2;Temp;Humidity;BMP_temperature;BMP_pressure;BME280_temperature;BME280_humidity;BME280_pressure;Samples;Min_cycle;Max_cycle;Signal;HPM_P1;HPM_P2
2024/04/02 00:01:04;;;;;;;11.77;3.30;;;;;;;14.56;46.26;95917.06;5054075;28;20259;-85
2024/04/02 00:03:30;;;;;;;12.33;6.57;;;;;;;14.61;46.43;95918.75;5054055;28;20207;-85
2024/04/02 00:05:56;;;;;;;14.53;5.57;;;;;;;14.67;46.21;95917.44;5038997;28;20203;-85
2024/04/02 00:08:22;;;;;;;10.17;3.20;;;;;;;14.54;46.83;95900.53;5043188;28;20201;-84
2024/04/02 00:10:51;;;;;;;9.90;4.20;;;;;;;14.55;46.20;95879.91;5054172;28;20288;-85
2024/04/02 00:13:17;;;;;;;9.27;2.87;;;;;;;14.24;47.27;95853.50;5045535;28;20229;-85
2024/04/02 00:15:47;;;;;;;8.00;3.00;;;;;;;14.05;49.34;95880.72;5033854;28;20568;-85
2024/04/02 00:18:15;;;;;;;11.53;3.43;;;;;;;14.25;48.91;95920.13;5034682;28;20286;-85
2024/04/02 00:20:42;;;;;;;10.50;2.93;;;;;;;14.18;48.93;95936.69;5037397;28;20554;-85
2024/04/02 00:23:08;;;;;;;18.37;3.60;;;;;;;14.26;49.18;95913.66;5054159;28;20220;-84
2024/04/02 00:25:35;;;;;;;16.67;4.00;;;;;;;14.01;49.14;95891.28;5053577;28;20208;-84
2024/04/02 00:28:03;;;;;;;14.03;4.83;;;;;;;14.50;49.14;95931.75;5054456;28;20640;-85
2024/04/02 00:30:31;;;;;;;10.70;3.40;;;;;;;14.55;48.76;95925.41;5053709;28;20204;-85
2024/04/02 00:32:57;;;;;;;9.87;3.60;;;;;;;14.01;50.17;95885.94;5053962;28;20204;-85
2024/04/02 00:35:24;;;;;;;10.07;2.83;;;;;;;14.22;50.78;95941.38;5054320;28;20618;-85
2024/04/02 00:37:50;;;;;;;9.00;3.80;;;;;;;13.96;51.34;95899.50;5054222;28;20269;-84
2024/04/02 00:40:19;;;;;;;11.63;3.10;;;;;;;13.79;49.72;95924.47;5053501;28;20193;-85
2024/04/02 00:42:45;;;;;;;10.87;3.30;;;;;;;13.38;50.46;95896.47;5053749;28;20194;-85
2024/04/02 00:45:14;;;;;;;12.47;3.40;;;;;;;13.68;50.79;95936.63;5040267;28;20234;-85
2024/04/02 00:47:40;;;;;;;9.07;3.93;;;;;;;13.80;50.74;95923.34;5053865;28;20268;-85
2024/04/02 00:50:09;;;;;;;13.27;3.70;;;;;;;13.88;51.28;95922.53;5053209;28;20202;-85
2024/04/02 00:52:35;;;;;;;11.20;2.57;;;;;;;13.99;50.67;95922.16;5053373;28;20226;-85
2024/04/02 00:55:03;;;;;;;10.93;3.40;;;;;;;13.79;50.64;95887.03;5053167;28;20220;-85
2024/04/02 00:57:29;;;;;;;13.27;3.53;;;;;;;13.82;50.87;95890.94;5053770;28;20272;-87
2024/04/02 00:59:56;;;;;;;8.53;3.47;;;;;;;13.88;50.56;95865.56;5052475;28;20685;-85
2024/04/02 01:02:24;;;;;;;12.60;3.30;;;;;;;14.30;50.16;95893.16;5053734;28;20686;-84
2024/04/02 01:04:50;;;;;;;15.30;3.63;;;;;;;14.19;50.58;95892.75;5053143;28;20199;-85
2024/04/02 01:07:17;;;;;;;14.60;4.33;;;;;;;14.19;50.51;95905.34;5053460;28;20595;-84
2024/04/02 01:09:44;;;;;;;10.30;4.27;;;;;;;14.22;50.49;95883.28;5052994;28;20277;-85
2024/04/02 01:12:10;;;;;;;19.07;4.27;;;;;;;14.27;50.34;95863.56;5053077;28;20204;-85
2024/04/02 01:14:39;;;;;;;16.83;5.13;;;;;;;14.34;49.79;95859.25;5047003;28;20222;-85
2024/04/02 01:17:05;;;;;;;10.43;3.57;;;;;;;13.61;51.02;95786.59;5046666;28;20195;-84
2024/04/02 01:19:33;;;;;;;6.40;3.10;;;;;;;13.60;50.85;95817.13;5052667;28;20258;-85
2024/04/02 01:21:59;;;;;;;14.83;4.83;;;;;;;14.03;51.17;95878.38;5052737;28;20209;-86
2024/04/02 01:24:27;;;;;;;13.47;4.00;;;;;;;13.87;52.12;95867.47;5046401;28;20201;-85
2024/04/02 01:26:55;;;;;;;8.83;2.97;;;;;;;13.64;52.73;95869.63;5046627;28;20570;-85
2024/04/02 01:29:22;;;;;;;12.67;3.90;;;;;;;13.90;51.65;95856.13;5032936;28;20210;-85
2024/04/02 01:31:48;;;;;;;7.40;3.03;;;;;;;13.85;50.95;95839.47;5033784;28;20585;-85
2024/04/02 01:34:17;;;;;;;13.70;4.03;;;;;;;14.13;51.64;95858.47;5052800;28;20221;-85
2024/04/02 01:36:42;;;;;;;15.03;4.90;;;;;;;14.10;52.31;95864.50;5052746;28;20210;-85
2024/04/02 01:39:09;;;;;;;19.87;4.20;;;;;;;14.18;52.31;95863.63;5053018;28;20198;-85
2024/04/02 01:41:35;;;;;;;12.23;4.40;;;;;;;14.06;53.26;95864.34;5038074;28;20253;-85
2024/04/02 01:44:04;;;;;;;13.03;3.63;;;;;;;13.92;53.62;95869.94;5040594;28;20605;-85
2024/04/02 01:46:29;;;;;;;8.87;4.43;;;;;;;13.85;53.64;95842.13;5052785;28;20206;-84
2024/04/02 01:48:56;;;;;;;12.57;3.50;;;;;;;13.86;53.98;95860.56;5052501;28;20207;-85
2024/04/02 01:51:22;;;;;;;12.07;3.80;;;;;;;13.92;53.68;95856.56;5036928;28;20204;-85
2024/04/02 01:53:49;;;;;;;12.73;4.00;;;;;;;13.85;53.37;95842.13;5040673;28;20235;-85
2024/04/02 01:56:15;;;;;;;10.63;4.43;;;;;;;13.53;54.08;95839.03;5051894;28;20199;-85
2024/04/02 01:58:42;;;;;;;12.87;3.47;;;;;;;13.68;54.51;95873.22;5052306;28;20604;-85
2024/04/02 02:01:09;;;;;;;9.47;3.53;;;;;;;13.66;54.48;95874.66;5051961;28;20208;-84
2024/04/02 02:03:36;;;;;;;15.50;4.13;;;;;;;13.76;54.48;95858.25;5052083;28;20588;-85
2024/04/02 02:06:01;;;;;;;17.43;4.50;;;;;;;13.78;54.51;95874.75;5051577;28;20217;-85
2024/04/02 02:08:28;;;;;;;11.77;3.93;;;;;;;13.64;54.97;95866.19;5052291;28;20206;-85
2024/04/02 02:10:54;;;;;;;8.23;3.50;;;;;;;13.57;54.73;95858.66;5051161;28;20205;-85
2024/04/02 02:13:21;;;;;;;14.80;3.07;;;;;;;13.78;53.40;95866.72;5052084;28;20674;-84
2024/04/02 02:15:57;;;;;;;12.33;3.87;;;;;;;13.81;54.39;95871.41;5051871;28;20206;-84
2024/04/02 02:18:26;;;;;;;9.83;3.80;;;;;;;13.55;53.65;95814.63;5052102;28;20212;-84
2024/04/02 02:20:52;;;;;;;19.53;4.33;;;;;;;13.74;54.18;95865.78;5051665;28;20190;-85
2024/04/02 02:23:19;;;;;;;16.17;4.20;;;;;;;13.79;54.90;95857.59;5040832;28;20227;-84
2024/04/02 02:25:45;;;;;;;12.67;4.57;;;;;;;13.77;54.85;95843.75;5035846;28;20284;-84
2024/04/02 02:28:12;;;;;;;19.77;5.37;;;;;;;13.79;54.31;95844.22;5051966;28;20206;-85
2024/04/02 02:30:37;;;;;;;15.50;4.83;;;;;;;13.90;54.71;95871.38;5051207;28;20217;-85
2024/04/02 02:33:05;;;;;;;15.20;4.43;;;;;;;13.71;55.85;95871.81;5052131;28;20202;-85
2024/04/02 02:35:32;;;;;;;11.20;4.87;;;;;;;13.73;56.38;95866.91;5051603;28;20262;-83
2024/04/02 02:37:59;;;;;;;14.33;4.87;;;;;;;13.78;56.52;95874.75;5051775;28;20204;-84
2024/04/02 02:40:24;;;;;;;13.57;4.90;;;;;;;13.55;56.73;95863.56;5038062;28;20256;-84
2024/04/02 02:42:51;;;;;;;16.73;4.83;;;;;;;13.32;56.53;95876.41;5051255;28;20198;-84
2024/04/02 02:45:17;;;;;;;13.93;5.23;;;;;;;13.30;58.10;95877.81;5046523;28;20210;-84
2024/04/02 02:47:44;;;;;;;11.03;4.83;;;;;;;13.29;58.15;95885.06;5032156;28;20575;-84
2024/04/02 02:50:10;;;;;;;18.80;4.90;;;;;;;13.33;57.52;95877.97;5049516;28;20248;-84
2024/04/02 02:52:38;;;;;;;14.10;5.17;;;;;;;13.52;57.32;95884.81;5051291;28;20233;-84
2024/04/02 02:55:04;;;;;;;19.03;4.17;;;;;;;13.25;57.79;95881.44;5050482;28;20214;-85
2024/04/02 02:57:31;;;;;;;12.67;4.77;;;;;;;13.19;58.31;95862.09;5051244;28;20669;-84
2024/04/02 02:59:57;;;;;;;11.60;4.10;;;;;;;13.42;57.64;95881.38;5050988;28;20225;-84
2024/04/02 03:02:24;;;;;;;10.83;4.73;;;;;;;13.42;58.04;95876.03;5051115;28;20281;-84
2024/04/02 03:04:50;;;;;;;14.67;4.53;;;;;;;13.43;57.84;95882.16;5051170;28;20199;-84
2024/04/02 03:07:17;;;;;;;15.43;4.07;;;;;;;13.44;57.72;95871.16;5051000;28;20688;-84
2024/04/02 03:09:44;;;;;;;18.63;4.47;;;;;;;13.33;57.96;95864.59;5050692;28;20193;-85
2024/04/02 03:12:11;;;;;;;15.53;4.43;;;;;;;13.49;57.31;95864.06;5051260;28;20669;-83
2024/04/02 03:14:37;;;;;;;12.67;4.70;;;;;;;13.33;57.73;95856.56;5050575;28;20222;-84
2024/04/02 03:17:04;;;;;;;17.37;5.77;;;;;;;13.20;57.78;95862.88;5051233;28;20232;-85
2024/04/02 03:19:30;;;;;;;12.17;5.43;;;;;;;13.03;58.40;95855.72;5050899;28;20189;-84
2024/04/02 03:21:57;;;;;;;11.13;5.27;;;;;;;12.81;58.18;95818.53;5049802;28;20204;-84
2024/04/02 03:24:23;;;;;;;13.60;3.90;;;;;;;13.22;57.25;95850.78;5050369;28;20205;-84
2024/04/02 03:26:51;;;;;;;18.23;5.70;;;;;;;12.94;58.48;95838.94;5051171;28;20225;-84
2024/04/02 03:29:17;;;;;;;9.80;4.53;;;;;;;12.73;58.51;95850.28;5050501;28;20197;-84
2024/04/02 03:31:44;;;;;;;11.03;4.17;;;;;;;12.53;58.58;95788.78;5050870;28;20201;-86
2024/04/02 03:34:10;;;;;;;9.83;4.20;;;;;;;12.82;58.94;95852.16;5050583;28;20639;-84
2024/04/02 03:36:38;;;;;;;14.00;4.87;;;;;;;12.72;59.39;95845.25;5037142;28;20206;-84
2024/04/02 03:39:04;;;;;;;13.97;4.57;;;;;;;12.48;58.93;95793.19;5050934;28;20198;-85
2024/04/02 03:41:32;;;;;;;16.27;5.27;;;;;;;12.84;58.92;95842.72;5050639;28;20669;-85
2024/04/02 03:44:00;;;;;;;17.70;5.20;;;;;;;12.90;58.89;95849.47;5051208;28;20255;-84
2024/04/02 03:46:27;;;;;;;12.17;4.30;;;;;;;12.61;58.45;95820.78;5050687;28;20267;-84
2024/04/02 03:48:52;;;;;;;13.70;4.40;;;;;;;13.03;58.35;95853.03;5050841;28;20202;-84
2024/04/02 03:51:19;;;;;;;11.57;4.03;;;;;;;12.56;59.20;95828.97;5050745;28;20212;-84
2024/04/02 03:53:45;;;;;;;12.27;5.77;;;;;;;12.63;58.84;95812.47;5050964;28;20218;-84
2024/04/02 03:56:12;;;;;;;14.03;5.27;;;;;;;12.75;58.49;95844.63;5050020;28;20205;-84
2024/04/02 03:58:38;;;;;;;15.87;4.73;;;;;;;12.66;59.17;95839.31;5050764;28;20225;-84
2024/04/02 04:01:08;;;;;;;15.93;4.50;;;;;;;12.63;58.32;95812.47;5050052;28;20588;-85
2024/04/02 04:03:34;;;;;;;18.30;4.97;;;;;;;12.51;57.89;95790.97;5050498;28;20194;-84
2024/04/02 04:06:04;;;;;;;11.93;4.23;;;;;;;12.69;57.43;95800.50;5049978;28;20205;-84
2024/04/02 04:08:31;;;;;;;16.07;4.60;;;;;;;12.72;58.21;95823.91;5041611;28;20284;-84
2024/04/02 04:10:58;;;;;;;16.30;4.07;;;;;;;12.95;58.91;95851.97;5046964;28;20260;-84
2024/04/02 04:13:24;;;;;;;13.83;3.70;;;;;;;13.06;58.77;95859.63;5049779;28;20268;-84
2024/04/02 04:15:52;;;;;;;11.73;4.17;;;;;;;12.90;59.36;95843.34;5037070;28;20225;-83
2024/04/02 04:18:20;;;;;;;10.43;4.77;;;;;;;13.07;59.04;95840.59;5050646;28;20197;-84
2024/04/02 04:20:53;;;;;;;11.23;4.67;;;;;;;13.03;59.24;95838.91;5049970;28;20201;-84
2024/04/02 04:23:19;;;;;;;8.80;2.87;;;;;;;12.82;58.33;95844.16;5050466;28;20360;-84
2024/04/02 04:25:46;;;;;;;20.50;7.40;;;;;;;12.88;57.88;95845.53;5036678;28;20198;-84
2024/04/02 04:28:12;;;;;;;15.20;6.80;;;;;;;12.65;58.48;95845.75;5050440;28;20622;-85
2024/04/02 04:30:39;;;;;;;19.40;6.17;;;;;;;12.48;59.48;95819.88;5037010;28;20664;-84
2024/04/02 04:33:05;;;;;;;19.77;8.43;;;;;;;12.54;58.67;95817.81;5050861;28;20295;-85
2024/04/02 04:35:35;;;;;;;16.20;4.77;;;;;;;12.64;58.45;95846.84;5053944;28;20221;-84
2024/04/02 04:38:00;;;;;;;22.67;7.13;;;;;;;12.46;59.00;95835.41;5054264;28;20285;-84
2024/04/02 04:40:27;;;;;;;16.50;6.17;;;;;;;12.61;59.02;95831.47;5053384;28;20276;-84
2024/04/02 04:42:53;;;;;;;15.17;5.87;;;;;;;12.79;58.20;95821.53;5053713;28;20248;-84
2024/04/02 04:45:20;;;;;;;17.77;6.63;;;;;;;12.14;59.59;95812.69;5053378;28;20197;-84
2024/04/02 04:47:46;;;;;;;17.20;6.17;;;;;;;12.27;58.48;95832.28;5054020;28;20197;-84
2024/04/02 04:50:13;;;;;;;17.33;5.77;;;;;;;12.26;57.41;95798.69;5053123;28;20204;-83
2024/04/02 04:52:40;;;;;;;18.77;6.03;;;;;;;12.36;57.07;95802.94;5053515;28;20205;-84
2024/04/02 04:55:07;;;;;;;11.53;5.90;;;;;;;12.32;56.03;95810.78;5039983;28;20221;-85
2024/04/02 04:57:32;;;;;;;22.23;9.70;;;;;;;11.70;60.16;95825.19;5041496;28;20238;-84
2024/04/02 04:59:59;;;;;;;15.20;6.10;;;;;;;11.95;60.70;95828.22;5039144;28;20576;-84
2024/04/02 05:02:25;;;;;;;17.73;4.73;;;;;;;12.14;60.50;95809.22;5053232;28;20198;-84
2024/04/02 05:04:52;;;;;;;13.60;4.47;;;;;;;12.40;57.79;95836.69;5052892;28;20203;-83
2024/04/02 05:07:22;;;;;;;35.60;14.17;;;;;;;12.77;55.42;95853.09;5053359;28;20198;-84
2024/04/02 05:09:51;;;;;;;22.77;6.20;;;;;;;12.80;57.51;95828.44;5052743;28;20194;-84
2024/04/02 05:12:17;;;;;;;18.60;6.90;;;;;;;12.97;57.97;95820.38;5052896;28;20201;-84
2024/04/02 05:14:43;;;;;;;103.43;53.40;;;;;;;13.16;53.90;95803.16;5039927;28;20221;-84
2024/04/02 05:17:09;;;;;;;27.20;13.63;;;;;;;13.50;52.39;95802.25;5053434;28;20193;-85
2024/04/02 05:19:36;;;;;;;15.40;6.30;;;;;;;13.85;49.37;95816.16;5053097;28;20213;-84
2024/04/02 05:22:02;;;;;;;16.33;5.43;;;;;;;14.03;49.95;95816.84;5052506;28;20198;-84
2024/04/02 05:24:29;;;;;;;17.20;8.33;;;;;;;13.88;53.49;95802.16;5033121;28;20586;-84
2024/04/02 05:26:56;;;;;;;26.63;5.57;;;;;;;13.43;54.77;95793.94;5045900;28;20201;-84
2024/04/02 05:29:23;;;;;;;17.93;6.27;;;;;;;13.67;55.14;95842.25;5032829;28;20203;-84
2024/04/02 05:31:48;;;;;;;12.43;4.53;;;;;;;13.60;54.90;95839.31;5034153;28;20202;-84
2024/04/02 05:34:15;;;;;;;9.27;3.60;;;;;;;13.87;53.91;95818.53;5052982;28;20656;-84
2024/04/02 05:36:41;;;;;;;24.60;11.93;;;;;;;14.29;51.99;95807.81;5052853;28;20581;-84
2024/04/02 05:39:09;;;;;;;14.37;5.63;;;;;;;14.25;54.86;95828.28;5052361;28;20222;-84
2024/04/02 05:41:35;;;;;;;19.83;6.00;;;;;;;13.80;57.06;95827.06;5053029;28;20204;-84
2024/04/02 05:44:03;;;;;;;17.30;6.07;;;;;;;13.94;57.55;95826.81;5052715;28;20225;-84
2024/04/02 05:46:29;;;;;;;23.60;5.23;;;;;;;14.23;56.19;95833.22;5051463;28;20584;-83
2024/04/02 05:48:55;;;;;;;19.73;5.23;;;;;;;14.19;55.88;95758.91;5052154;28;20201;-83
2024/04/02 05:51:21;;;;;;;18.37;5.83;;;;;;;14.89;54.68;95834.03;5052294;28;20224;-83
2024/04/02 05:53:48;;;;;;;34.77;11.50;;;;;;;15.11;53.99;95822.13;5052362;28;20661;-84
2024/04/02 05:56:14;;;;;;;19.20;8.70;;;;;;;14.97;52.81;95780.66;5051997;28;20208;-83
2024/04/02 05:58:40;;;;;;;17.40;6.87;;;;;;;15.47;52.63;95822.47;5052432;28;20233;-84
2024/04/02 06:01:08;;;;;;;17.23;7.47;;;;;;;15.16;52.99;95775.53;5052217;28;20206;-83
2024/04/02 06:03:35;;;;;;;17.97;8.67;;;;;;;15.50;54.46;95809.16;5052558;28;20257;-83
2024/04/02 06:06:00;;;;;;;13.97;7.73;;;;;;;15.24;55.64;95819.44;5051595;28;20532;-83
2024/04/02 06:08:27;;;;;;;18.47;6.20;;;;;;;15.11;54.39;95813.31;5052171;28;20291;-83
2024/04/02 06:10:53;;;;;;;12.97;5.50;;;;;;;15.28;54.11;95810.38;5051855;28;20675;-83
2024/04/02 06:13:20;;;;;;;22.87;6.03;;;;;;;15.68;53.56;95814.31;5052269;28;20205;-83
2024/04/02 06:15:46;;;;;;;19.47;4.87;;;;;;;15.83;53.12;95830.50;5051656;28;20226;-83
2024/04/02 06:18:14;;;;;;;15.93;6.17;;;;;;;15.77;53.20;95818.44;5051784;28;20268;-83
2024/04/02 06:20:40;;;;;;;22.00;6.93;;;;;;;15.57;53.62;95797.88;5036176;28;20197;-83
2024/04/02 06:23:06;;;;;;;17.07;5.03;;;;;;;15.40;52.33;95842.56;5032406;28;20251;-83
2024/04/02 06:25:32;;;;;;;13.63;4.63;;;;;;;15.62;51.35;95843.25;5046701;28;20199;-83
2024/04/02 06:27:59;;;;;;;16.87;4.27;;;;;;;15.90;51.01;95840.66;5052096;28;20205;-83
2024/04/02 06:30:25;;;;;;;9.40;3.70;;;;;;;16.12;51.00;95834.81;5035767;28;20205;-83
2024/04/02 06:32:52;;;;;;;14.37;4.07;;;;;;;16.30;50.52;95813.03;5031617;28;20213;-82
2024/04/02 06:35:19;;;;;;;11.07;4.83;;;;;;;16.55;49.41;95806.44;5034029;28;20303;-83
2024/04/02 06:37:46;;;;;;;19.23;7.23;;;;;;;16.78;52.23;95832.81;5051919;28;20205;-83
2024/04/02 06:40:11;;;;;;;11.90;5.07;;;;;;;17.11;50.98;95832.47;5051351;28;20197;-83
2024/04/02 06:42:38;;;;;;;14.70;5.50;;;;;;;17.27;48.58;95829.81;5042390;28;20257;-82
2024/04/02 06:45:05;;;;;;;12.23;4.33;;;;;;;17.14;48.12;95820.25;5034171;28;20229;-82
2024/04/02 06:47:32;;;;;;;16.33;3.50;;;;;;;17.07;48.58;95843.13;5051761;28;20236;-82
2024/04/02 06:50:01;;;;;;;14.20;4.03;;;;;;;17.13;49.22;95850.97;5051100;28;20197;-82
2024/04/02 06:52:29;;;;;;;18.87;3.90;;;;;;;17.19;49.00;95831.56;5051109;28;20205;-82
2024/04/02 06:54:55;;;;;;;15.20;4.97;;;;;;;17.56;48.68;95842.03;5050581;28;20225;-83
2024/04/02 06:57:22;;;;;;;20.97;4.57;;;;;;;17.89;48.38;95847.03;5051339;28;20271;-82
2024/04/02 06:59:47;;;;;;;26.87;5.30;;;;;;;18.21;47.17;95847.72;5046774;28;20226;-83
2024/04/02 07:02:14;;;;;;;15.30;4.43;;;;;;;18.35;46.03;95822.97;5031270;28;20210;-83
2024/04/02 07:04:40;;;;;;;13.77;4.47;;;;;;;18.66;42.00;95823.97;5030875;28;20195;-82
2024/04/02 07:07:07;;;;;;;14.83;4.37;;;;;;;18.98;36.57;95833.44;5042317;28;20213;-82
2024/04/02 07:09:34;;;;;;;12.40;3.67;;;;;;;19.25;36.95;95830.81;5050590;28;20654;-82
2024/04/02 07:12:01;;;;;;;25.47;6.07;;;;;;;19.53;36.44;95830.50;5050899;28;20206;-82
2024/04/02 07:14:27;;;;;;;10.27;4.53;;;;;;;19.57;38.51;95828.63;5050851;28;20222;-82
2024/04/02 07:16:55;;;;;;;13.43;4.30;;;;;;;19.45;37.98;95794.53;5050994;28;20544;-82
2024/04/02 07:19:22;;;;;;;18.90;5.23;;;;;;;19.90;36.49;95836.09;5050744;28;20252;-82
2024/04/02 07:21:49;;;;;;;14.10;3.87;;;;;;;20.14;37.42;95845.69;5050709;28;20661;-82
2024/04/02 07:24:15;;;;;;;19.73;4.60;;;;;;;20.32;35.61;95847.84;5050606;28;20209;-82
2024/04/02 07:26:43;;;;;;;10.00;3.50;;;;;;;20.73;36.34;95846.81;5050615;28;20587;-83
2024/04/02 07:29:09;;;;;;;19.70;4.50;;;;;;;20.89;35.77;95835.78;5050981;28;20201;-82
2024/04/02 07:31:36;;;;;;;18.43;3.90;;;;;;;21.15;35.40;95840.28;5050305;28;20591;-82
2024/04/02 07:34:03;;;;;;;14.70;4.20;;;;;;;21.71;34.11;95828.38;5050431;28;20731;-82
2024/04/02 07:36:29;;;;;;;23.30;4.43;;;;;;;22.11;33.87;95829.41;5050822;28;20221;-82
2024/04/02 07:38:55;;;;;;;21.97;4.53;;;;;;;22.12;33.82;95825.53;5037475;28;20600;-82
2024/04/02 07:41:23;;;;;;;19.47;4.47;;;;;;;22.26;32.39;95805.88;5050571;28;20197;-82
2024/04/02 07:43:50;;;;;;;13.07;4.23;;;;;;;22.00;31.45;95809.59;5050394;28;20213;-82
2024/04/02 07:46:17;;;;;;;17.30;4.67;;;;;;;22.50;30.63;95801.72;5050781;28;20285;-82
2024/04/02 07:48:42;;;;;;;11.33;3.77;;;;;;;22.48;27.08;95781.56;5050939;28;20209;-82
2024/04/02 07:51:10;;;;;;;16.30;4.10;;;;;;;23.23;27.31;95774.34;5050039;28;20602;-82
2024/04/02 07:53:36;;;;;;;8.87;3.57;;;;;;;23.48;28.43;95789.88;5050559;28;20204;-82
2024/04/02 07:56:03;;;;;;;17.57;3.90;;;;;;;23.75;26.12;95795.69;5050134;28;20283;-82
2024/04/02 07:58:29;;;;;;;16.07;4.50;;;;;;;23.86;25.28;95791.00;5050175;28;20279;-82
2024/04/02 08:00:57;;;;;;;20.50;5.13;;;;;;;23.78;25.51;95784.03;5049797;28;20205;-81
2024/04/02 08:03:23;;;;;;;24.07;9.90;;;;;;;24.11;25.64;95799.88;5050407;28;20208;-82
2024/04/02 08:05:57;;;;;;;17.77;8.73;;;;;;;24.08;26.91;95791.72;5050014;28;20197;-82
2024/04/02 08:08:22;;;;;;;22.03;5.87;;;;;;;24.09;26.69;95798.72;5031650;28;20554;-82
2024/04/02 08:10:49;;;;;;;15.97;5.17;;;;;;;23.97;26.91;95785.53;5034072;28;20252;-82
2024/04/02 08:13:15;;;;;;;19.13;4.60;;;;;;;24.32;24.78;95781.94;5034338;28;20233;-82
2024/04/02 08:15:42;;;;;;;19.30;5.60;;;;;;;24.67;24.47;95785.69;5034088;28;20692;-81
2024/04/02 08:18:09;;;;;;;19.00;5.10;;;;;;;24.38;23.30;95793.94;5042513;28;20280;-81
2024/04/02 08:20:36;;;;;;;15.00;4.30;;;;;;;24.27;23.09;95785.06;5053615;28;20194;-82
2024/04/02 08:23:04;;;;;;;16.47;4.77;;;;;;;24.11;23.45;95799.88;5045119;28;20194;-82
2024/04/02 08:25:31;;;;;;;19.50;6.07;;;;;;;23.72;23.03;95777.44;5034256;28;20211;-82
2024/04/02 08:27:57;;;;;;;17.40;4.73;;;;;;;24.20;23.88;95801.38;5034691;28;20661;-81
2024/04/02 08:30:24;;;;;;;17.47;4.93;;;;;;;24.56;23.19;95797.41;5036152;28;20269;-82
2024/04/02 08:32:50;;;;;;;15.57;5.70;;;;;;;24.47;21.71;95796.25;5053635;28;20204;-82
2024/04/02 08:35:18;;;;;;;26.77;8.37;;;;;;;24.73;24.03;95794.97;5053843;28;20304;-82
2024/04/02 08:37:44;;;;;;;24.47;5.20;;;;;;;24.81;24.11;95793.75;5053787;28;20202;-82
2024/04/02 08:40:11;;;;;;;14.57;6.67;;;;;;;25.36;24.67;95790.28;5053319;28;20213;-82
2024/04/02 08:42:38;;;;;;;16.23;5.60;;;;;;;24.69;22.98;95758.84;5053696;28;20194;-82
2024/04/02 08:45:09;;;;;;;20.20;5.00;;;;;;;25.12;23.95;95757.41;5053249;28;20206;-82
2024/04/02 08:47:37;;;;;;;23.00;5.37;;;;;;;25.47;22.17;95771.13;5054145;28;20224;-81
2024/04/02 08:50:05;;;;;;;20.43;5.87;;;;;;;25.79;21.77;95773.59;5052955;28;20267;-82
2024/04/02 08:52:33;;;;;;;18.13;5.07;;;;;;;26.05;23.34;95769.41;5053524;28;20220;-82
2024/04/02 08:55:00;;;;;;;24.10;5.67;;;;;;;26.02;21.36;95751.13;5035169;28;20225;-82
2024/04/02 08:57:27;;;;;;;24.87;7.20;;;;;;;25.91;21.54;95762.16;5034047;28;20203;-82
2024/04/02 08:59:55;;;;;;;17.07;5.43;;;;;;;26.34;21.58;95767.91;5051476;28;20305;-82
2024/04/02 09:02:22;;;;;;;22.80;6.17;;;;;;;26.09;20.93;95772.88;5053072;28;20198;-82
2024/04/02 09:04:49;;;;;;;21.13;8.03;;;;;;;26.22;21.18;95764.94;5053258;28;20260;-82
2024/04/02 09:07:15;;;;;;;21.90;6.23;;;;;;;25.65;21.40;95765.53;5053446;28;20198;-82
2024/04/02 09:09:44;;;;;;;25.07;11.60;;;;;;;25.10;23.16;95751.59;5053549;28;20262;-82
2024/04/02 09:12:10;;;;;;;46.50;20.47;;;;;;;24.71;23.07;95765.44;5053249;28;20210;-82
2024/04/02 09:14:38;;;;;;;35.50;9.93;;;;;;;25.66;21.82;95769.78;5052978;28;20305;-82
2024/04/02 09:17:08;;;;;;;26.23;8.83;;;;;;;25.66;22.18;95739.81;5040063;28;20238;-82
2024/04/02 09:19:35;;;;;;;18.67;4.90;;;;;;;25.73;21.45;95754.13;5040100;28;20730;-82
2024/04/02 09:22:00;;;;;;;20.13;5.03;;;;;;;25.57;21.66;95751.97;5052553;28;20595;-82
2024/04/02 09:24:27;;;;;;;18.20;4.67;;;;;;;26.13;23.54;95756.47;5053656;28;20213;-82
2024/04/02 09:26:54;;;;;;;22.40;4.80;;;;;;;26.74;22.94;95756.50;5053007;28;20206;-82
2024/04/02 09:29:21;;;;;;;19.20;5.45;;;;;;;26.81;23.33;95750.94;5053001;28;20206;-82
2024/04/02 09:31:50;;;;;;;19.52;4.68;;;;;;;26.91;22.93;95736.34;5052482;28;20209;-83
2024/04/02 09:34:18;;;;;;;18.55;5.65;;;;;;;26.90;23.50;95736.75;5052599;28;20206;-82
2024/04/02 09:36:47;;;;;;;28.42;6.22;;;;;;;27.05;23.30;95724.41;5037334;28;20244;-83
2024/04/02 09:39:15;;;;;;;27.70;6.55;;;;;;;26.76;22.26;95730.34;5042153;28;20202;-82
2024/04/02 09:41:42;;;;;;;21.00;5.67;;;;;;;26.49;21.72;95735.00;5052488;28;20194;-82
2024/04/02 09:44:13;;;;;;;24.67;7.07;;;;;;;26.65;21.75;95728.94;5052556;28;20664;-82
2024/04/02 09:46:40;;;;;;;12.18;4.45;;;;;;;27.04;21.50;95718.19;5052850;28;20194;-81
2024/04/02 09:49:12;;;;;;;15.27;5.40;;;;;;;26.89;20.82;95719.59;5052396;28;20758;-82
2024/04/02 09:51:39;;;;;;;22.33;7.35;;;;;;;27.29;21.09;95715.06;5052281;28;20205;-82
2024/04/02 09:54:06;;;;;;;20.30;5.35;;;;;;;27.88;19.67;95715.59;5052260;28;20202;-82
2024/04/02 09:56:33;;;;;;;28.20;6.32;;;;;;;27.59;19.34;95710.66;5052595;28;20634;-82
2024/04/02 09:59:01;;;;;;;26.48;6.38;;;;;;;27.50;20.16;95708.47;5052264;28;20677;-82
2024/04/02 10:01:32;;;;;;;21.35;5.97;;;;;;;27.58;19.34;95700.91;5052258;28;20198;-82
2024/04/02 10:04:03;;;;;;;23.73;5.95;;;;;;;27.57;19.35;95704.84;5038790;28;20209;-82
2024/04/02 10:06:32;;;;;;;29.67;5.90;;;;;;;27.61;19.67;95702.00;5051613;28;20260;-82
2024/04/02 10:09:00;;;;;;;23.17;6.65;;;;;;;27.84;19.33;95701.22;5051917;28;20194;-82
2024/04/02 10:11:37;;;;;;;26.20;5.88;;;;;;;28.08;19.32;95694.50;5038293;28;20293;-82
2024/04/02 10:14:06;;;;;;;16.52;4.93;;;;;;;28.20;17.74;95677.44;5051859;28;20722;-82
2024/04/02 10:16:34;;;;;;;23.38;5.47;;;;;;;28.09;18.31;95678.84;5051926;28;20233;-82
2024/04/02 10:19:02;;;;;;;21.10;5.35;;;;;;;27.92;19.45;95687.00;5051636;28;20198;-82
2024/04/02 10:21:30;;;;;;;21.13;5.97;;;;;;;27.92;18.91;95684.28;5051776;28;20256;-82
2024/04/02 10:23:59;;;;;;;24.92;6.40;;;;;;;28.42;18.37;95674.25;5051859;28;20200;-82
2024/04/02 10:26:30;;;;;;;17.08;5.55;;;;;;;28.29;18.66;95674.88;5052031;28;20198;-82
2024/04/02 10:28:57;;;;;;;27.05;5.43;;;;;;;27.63;18.79;95667.59;5051274;28;20727;-82
2024/04/02 10:31:35;;;;;;;22.95;5.63;;;;;;;27.79;18.13;95658.72;5051031;28;20205;-82
2024/04/02 10:34:02;;;;;;;15.60;5.45;;;;;;;27.60;17.79;95656.75;5051135;28;20284;-82
2024/04/02 10:36:28;;;;;;;20.90;6.40;;;;;;;27.52;18.21;95654.13;5051295;28;20683;-83
2024/04/02 10:38:55;;;;;;;21.23;4.85;;;;;;;28.20;17.23;95654.78;5051712;28;20196;-83
2024/04/02 10:41:20;;;;;;;22.75;6.45;;;;;;;28.20;17.46;95641.09;5051696;28;20210;-82
2024/04/02 10:43:48;;;;;;;24.55;4.60;;;;;;;27.70;17.23;95648.34;5051737;28;20198;-83
2024/04/02 10:46:15;;;;;;;14.65;5.40;;;;;;;27.63;17.21;95648.47;5051519;28;20281;-82
2024/04/02 10:48:43;;;;;;;25.95;5.90;;;;;;;27.75;17.61;95647.88;5051138;28;20198;-82
2024/04/02 10:51:09;;;;;;;20.67;4.40;;;;;;;27.59;18.67;95638.81;5051326;28;20197;-84
2024/04/02 10:53:36;;;;;;;16.98;4.75;;;;;;;27.74;19.82;95601.81;5051312;28;20256;-82
2024/04/02 10:56:03;;;;;;;21.00;5.35;;;;;;;27.21;20.77;95630.91;5050970;28;20225;-83
2024/04/02 10:58:30;;;;;;;18.27;4.03;;;;;;;26.96;17.71;95644.97;5050782;28;20612;-82
2024/04/02 11:01:00;;;;;;;20.77;5.47;;;;;;;26.85;19.01;95631.50;5051215;28;20296;-82
2024/04/02 11:03:25;;;;;;;20.10;6.47;;;;;;;26.57;20.50;95628.03;5051213;28;20232;-82
2024/04/02 11:05:54;;;;;;;22.35;4.95;;;;;;;26.20;22.14;95566.19;5050510;28;20237;-83
2024/04/02 11:08:20;;;;;;;20.80;7.70;;;;;;;25.99;20.99;95610.94;5051297;28;20665;-83
2024/04/02 11:10:49;;;;;;;15.00;4.53;;;;;;;26.24;14.44;95613.28;5037445;28;20209;-84
2024/04/02 11:13:24;;;;;;;18.63;5.68;;;;;;;26.86;15.02;95611.19;5051094;28;20190;-82
2024/04/02 11:15:51;;;;;;;29.08;4.88;;;;;;;26.37;14.43;95608.06;5050966;28;20237;-83
2024/04/02 11:18:21;;;;;;;15.38;4.78;;;;;;;26.00;15.34;95587.16;5050602;28;20260;-83
2024/04/02 11:20:48;;;;;;;26.63;5.38;;;;;;;25.86;14.90;95579.94;5050913;28;20225;-84
2024/04/02 11:26:14;;;;;;;23.70;6.38;;;;;;;26.80;12.48;95589.06;5050549;28;20204;-83
2024/04/02 11:28:41;;;;;;;18.50;4.32;;;;;;;26.44;13.06;95558.81;5050178;28;20735;-82